Big Bear Station Historical Data
Daily Summary for March 14, 2019 Units:  English    Metric   Both
Next Day »
Daily Weekly Monthly Yearly Custom
  High: Low: Average:
Temperature: 40.8 °F 18.1 °F 28.2 °F
Dew Point: 14.9 °F 2.1 °F 11.5 °F
Humidity: 80% 24% 53%
Wind Speed: 6.8mph 0.0mph 1.5mph
Wind Gust: -999.0mph - -
Wind- - SSW
Pressure: 23.58 in 23.49 in -
Precipitation: 0.00 in    
Historical Graphs
 
 
Tabular Data for March 14, 2019
Time Temperature Dew Point Pressure Wind Wind Speed Wind Gust Humidity Rainfall Rate (Hourly)
00:03 25.2 °F 13.6 °F 23.50 in SSW 1.7 mph -999.0 mph 61% 0.00 in
00:19 24.6 °F 11.9 °F 23.50 in Calm   -999.0 mph 58% 0.00 in
00:34 24.6 °F 13.4 °F 23.50 in Calm   -999.0 mph 62% 0.00 in
00:49 24.4 °F 12.1 °F 23.51 in WSW 3.2 mph -999.0 mph 59% 0.00 in
01:04 24.4 °F 13.2 °F 23.50 in Calm   -999.0 mph 62% 0.00 in
01:19 24.4 °F 12.9 °F 23.51 in South 2.2 mph -999.0 mph 61% 0.00 in
01:35 24.3 °F 13.9 °F 23.51 in WSW 2.7 mph -999.0 mph 64% 0.00 in
01:50 24.1 °F 13.3 °F 23.51 in SE 2.2 mph -999.0 mph 63% 0.00 in
02:05 23.5 °F 12.0 °F 23.51 in NNE 2.2 mph -999.0 mph 61% 0.00 in
02:20 23.5 °F 11.6 °F 23.51 in Calm   -999.0 mph 60% 0.00 in
02:36 23.4 °F 13.4 °F 23.51 in North 1.7 mph -999.0 mph 65% 0.00 in
02:51 23.0 °F 12.3 °F 23.51 in WNW 2.2 mph -999.0 mph 63% 0.00 in
03:06 22.8 °F 13.8 °F 23.51 in Calm   -999.0 mph 68% 0.00 in
03:21 22.1 °F 14.5 °F 23.50 in Calm   -999.0 mph 72% 0.00 in
03:36 21.4 °F 14.7 °F 23.50 in Calm   -999.0 mph 75% 0.00 in
03:52 20.8 °F 14.1 °F 23.50 in Calm   -999.0 mph 75% 0.00 in
04:07 20.3 °F 13.9 °F 23.49 in SW 2.2 mph -999.0 mph 76% 0.00 in
04:22 20.5 °F 14.7 °F 23.49 in SSE 3.2 mph -999.0 mph 78% 0.00 in
04:37 19.8 °F 12.9 °F 23.50 in Calm   -999.0 mph 74% 0.00 in
04:52 20.1 °F 11.6 °F 23.50 in Calm   -999.0 mph 69% 0.00 in
05:08 20.1 °F 12.8 °F 23.51 in South 1.7 mph -999.0 mph 73% 0.00 in
05:23 19.9 °F 11.7 °F 23.51 in SSE 2.2 mph -999.0 mph 70% 0.00 in
05:38 20.1 °F 11.9 °F 23.51 in Calm   -999.0 mph 70% 0.00 in
05:53 19.2 °F 12.6 °F 23.52 in Calm   -999.0 mph 75% 0.00 in
06:08 18.7 °F 12.4 °F 23.52 in Calm   -999.0 mph 76% 0.00 in
06:24 18.7 °F 12.7 °F 23.52 in Calm   -999.0 mph 77% 0.00 in
06:39 18.3 °F 13.2 °F 23.53 in Calm   -999.0 mph 80% 0.00 in
06:54 18.9 °F 12.3 °F 23.53 in Calm   -999.0 mph 75% 0.00 in
07:09 18.1 °F 12.4 °F 23.53 in Calm   -999.0 mph 78% 0.00 in
07:24 18.1 °F 12.4 °F 23.54 in Calm   -999.0 mph 78% 0.00 in
07:40 18.1 °F 11.8 °F 23.54 in Calm   -999.0 mph 76% 0.00 in
07:55 19.4 °F 11.5 °F 23.54 in Calm   -999.0 mph 71% 0.00 in
08:10 21.0 °F 11.1 °F 23.54 in Calm   -999.0 mph 65% 0.00 in
08:25 23.7 °F 10.7 °F 23.54 in Calm   -999.0 mph 57% 0.00 in
08:40 24.1 °F 10.7 °F 23.55 in Calm   -999.0 mph 56% 0.00 in
08:56 24.3 °F 10.4 °F 23.56 in South 2.7 mph -999.0 mph 55% 0.00 in
09:11 25.2 °F 10.0 °F 23.56 in Calm   -999.0 mph 52% 0.00 in
09:26 25.7 °F 9.6 °F 23.56 in ENE 2.2 mph -999.0 mph 50% 0.00 in
09:42 27.5 °F 8.4 °F 23.57 in ESE 2.7 mph -999.0 mph 44% 0.00 in
09:57 29.8 °F 7.3 °F 23.57 in NNW 1.7 mph -999.0 mph 38% 0.00 in
10:13 31.3 °F 4.8 °F 23.57 in NNW 3.2 mph -999.0 mph 32% 0.00 in
10:28 32.2 °F 2.7 °F 23.57 in NW 3.2 mph -999.0 mph 28% 0.00 in
10:43 33.3 °F 2.1 °F 23.57 in East 2.7 mph -999.0 mph 26% 0.00 in
10:59 35.2 °F 2.8 °F 23.57 in NW 6.8 mph -999.0 mph 25% 0.00 in
11:14 36.9 °F 5.2 °F 23.57 in NNW 3.7 mph -999.0 mph 26% 0.00 in
11:29 37.8 °F 4.2 °F 23.57 in NNW 5.8 mph -999.0 mph 24% 0.00 in
11:44 38.3 °F 5.5 °F 23.58 in Calm   -999.0 mph 25% 0.00 in
11:59 39.0 °F 9.4 °F 23.58 in WNW 4.2 mph -999.0 mph 29% 0.00 in
12:15 39.0 °F 9.4 °F 23.58 in SSW 3.7 mph -999.0 mph 29% 0.00 in
12:30 39.2 °F 11.8 °F 23.58 in SSE 3.2 mph -999.0 mph 32% 0.00 in
12:46 39.6 °F 11.4 °F 23.57 in NNE 1.7 mph -999.0 mph 31% 0.00 in
13:01 39.2 °F 5.4 °F 23.57 in NE 2.2 mph -999.0 mph 24% 0.00 in
13:16 39.7 °F 10.0 °F 23.57 in East 1.1 mph -999.0 mph 29% 0.00 in
13:31 40.8 °F 9.4 °F 23.56 in West 3.2 mph -999.0 mph 27% 0.00 in
13:47 40.3 °F 9.7 °F 23.56 in SSW 4.7 mph -999.0 mph 28% 0.00 in
14:02 38.7 °F 7.5 °F 23.56 in North 5.3 mph -999.0 mph 27% 0.00 in
14:17 38.5 °F 8.2 °F 23.56 in ENE 2.2 mph -999.0 mph 28% 0.00 in
14:32 39.0 °F 10.9 °F 23.55 in NW 5.3 mph -999.0 mph 31% 0.00 in
14:47 38.1 °F 13.5 °F 23.55 in NE 2.2 mph -999.0 mph 36% 0.00 in
15:03 37.4 °F 5.6 °F 23.55 in SW 4.7 mph -999.0 mph 26% 0.00 in
15:18 38.1 °F 7.8 °F 23.56 in NW 6.3 mph -999.0 mph 28% 0.00 in
15:33 38.5 °F 11.2 °F 23.56 in WNW 5.8 mph -999.0 mph 32% 0.00 in
15:48 37.4 °F 10.2 °F 23.56 in NW 2.7 mph -999.0 mph 32% 0.00 in
16:03 37.4 °F 11.6 °F 23.56 in NNW 3.7 mph -999.0 mph 34% 0.00 in
16:19 37.6 °F 8.2 °F 23.56 in East 3.2 mph -999.0 mph 29% 0.00 in
16:34 37.4 °F 12.9 °F 23.55 in NNE 3.7 mph -999.0 mph 36% 0.00 in
16:49 37.2 °F 13.3 °F 23.56 in Calm   -999.0 mph 37% 0.00 in
17:04 36.5 °F 13.9 °F 23.55 in SE 2.2 mph -999.0 mph 39% 0.00 in
17:19 35.8 °F 14.9 °F 23.55 in Calm   -999.0 mph 42% 0.00 in
17:35 35.8 °F 14.4 °F 23.55 in North 3.7 mph -999.0 mph 41% 0.00 in
17:50 34.5 °F 14.3 °F 23.54 in SSE 2.2 mph -999.0 mph 43% 0.00 in
18:05 32.9 °F 14.9 °F 23.55 in Calm   -999.0 mph 47% 0.00 in
18:20 32.0 °F 12.0 °F 23.55 in ESE 2.2 mph -999.0 mph 43% 0.00 in
18:36 30.7 °F 12.3 °F 23.56 in WSW 1.1 mph -999.0 mph 46% 0.00 in
18:51 29.8 °F 13.0 °F 23.56 in NW 2.7 mph -999.0 mph 49% 0.00 in
19:06 29.1 °F 13.2 °F 23.56 in Calm   -999.0 mph 51% 0.00 in
19:21 28.8 °F 12.9 °F 23.56 in ENE 1.1 mph -999.0 mph 51% 0.00 in
19:37 28.0 °F 13.5 °F 23.56 in Calm   -999.0 mph 54% 0.00 in
19:52 27.1 °F 13.1 °F 23.57 in Calm   -999.0 mph 55% 0.00 in
20:07 27.0 °F 14.2 °F 23.57 in Calm   -999.0 mph 58% 0.00 in
20:22 26.2 °F 13.8 °F 23.57 in Calm   -999.0 mph 59% 0.00 in
20:38 25.7 °F 13.0 °F 23.57 in Calm   -999.0 mph 58% 0.00 in
20:53 25.2 °F 14.0 °F 23.57 in Calm   -999.0 mph 62% 0.00 in
21:08 24.8 °F 14.7 °F 23.57 in Calm   -999.0 mph 65% 0.00 in
21:23 24.8 °F 13.3 °F 23.57 in Calm   -999.0 mph 61% 0.00 in
21:38 25.2 °F 13.6 °F 23.57 in Calm   -999.0 mph 61% 0.00 in
21:54 25.3 °F 13.7 °F 23.58 in Calm   -999.0 mph 61% 0.00 in
22:09 24.6 °F 13.4 °F 23.58 in Calm   -999.0 mph 62% 0.00 in
22:24 24.6 °F 13.8 °F 23.58 in Calm   -999.0 mph 63% 0.00 in
22:39 24.3 °F 13.5 °F 23.58 in Calm   -999.0 mph 63% 0.00 in
22:54 24.4 °F 13.6 °F 23.57 in Calm   -999.0 mph 63% 0.00 in
23:10 24.3 °F 13.5 °F 23.57 in Calm   -999.0 mph 63% 0.00 in
23:25 24.1 °F 13.7 °F 23.57 in Calm   -999.0 mph 64% 0.00 in
23:40 23.7 °F 13.7 °F 23.57 in Calm   -999.0 mph 65% 0.00 in
23:55 23.5 °F 13.8 °F 23.57 in Calm   -999.0 mph 66% 0.00 in
Big Bear CA Weather